Northwest Arkansas Regional Airport
KXNA : now visible

Airfield :











YOU CAN JOIN US ON...

 
LOGIN :

Register | Disclaimer

   EN    FR    IT 

 









Legend :    VFR   Marginal VFR   IFR   Intensive IFR   Very Intensive IFR
Visi :
Ceiling :
>= 8 km
>= 3000ft
5 to 8 km
1000 to 3000 ft
1500m to 5 km
500 to 1000 ft
800 to 1500m
200 to 500 ft
< 800m
< 200 ft
Symbols :   Thunderstorms  Fog  Heavy snow  Heavy precipitations  Wind > 20 kt






- Airport Elevation : 1287 ft


KXNA - Northwest Arkansas Regional

CURRENT METAR :
  • 270056Z 00000KT 10SM FEW019 SCT035 OVC055 20/16 A2988

EXPIRED METARs :
  • 262356Z 22006KT 10SM SCT024 OVC050 21/16 A2987
  • 262256Z 22007KT 10SM FEW040 OVC050 21/16 A2988

TAF KXNA
Valid from the 27 at 00:00 until the 28 at 00:00 UTC


262329Z 2700/2724 VRB03KT P6SM SCT015 BKN040
FM270600 00000KT 4SM BR BKN025
FM270900 00000KT 2SM BR OVC009
TEMPO 2709/2713 1/2SM FG OVC004
FM271400 29005KT P6SM OVC015
FM271800 26005KT P6SM VCSH BKN035
KZME FIR / North America



MET'MAP, your aeronautical weather chart ! - Copyright ORBIFLY December 2007 - Disclaimer

ORBIFLY MET'MAP TEAM :

Programming & Development : Alexandra Zaïnal
Concept & original design : Baudouin d'Aumeries
Assistance for programming : Marc-Olivier Méhu
Technical & hardware support : Manuel Goepfert

Contact : metmap@orbifly.com




SOURCES & CREDITS :

   NOAA       Earth
Advisory